sensor_id;sensor_type;location;lat;lon;timestamp;P1;durP1;ratioP1;P2;durP2;ratioP2
15990;SDS011;8100;50.994;4.538;2022-12-15T00:01:54;47.97;;;27.25;;
15990;SDS011;8100;50.994;4.538;2022-12-15T00:04:58;50.35;;;28.45;;
15990;SDS011;8100;50.994;4.538;2022-12-15T00:08:06;50.45;;;27.98;;
15990;SDS011;8100;50.994;4.538;2022-12-15T00:11:11;47.13;;;27.27;;
15990;SDS011;8100;50.994;4.538;2022-12-15T00:14:16;51.47;;;27.63;;
15990;SDS011;8100;50.994;4.538;2022-12-15T00:17:22;48.72;;;28.05;;
15990;SDS011;8100;50.994;4.538;2022-12-15T00:20:27;46.58;;;27.17;;
15990;SDS011;8100;50.994;4.538;2022-12-15T00:23:31;43.40;;;27.33;;
15990;SDS011;8100;50.994;4.538;2022-12-15T00:26:36;47.22;;;27.63;;
15990;SDS011;8100;50.994;4.538;2022-12-15T00:29:40;46.47;;;27.33;;
15990;SDS011;8100;50.994;4.538;2022-12-15T00:32:46;49.65;;;27.10;;
15990;SDS011;8100;50.994;4.538;2022-12-15T00:35:51;47.95;;;28.20;;
15990;SDS011;8100;50.994;4.538;2022-12-15T00:38:55;46.45;;;26.35;;
15990;SDS011;8100;50.994;4.538;2022-12-15T00:41:43;44.03;;;26.48;;
15990;SDS011;8100;50.994;4.538;2022-12-15T00:44:30;52.20;;;27.80;;
15990;SDS011;8100;50.994;4.538;2022-12-15T00:47:17;51.38;;;28.33;;
15990;SDS011;8100;50.994;4.538;2022-12-15T00:50:06;48.67;;;27.42;;
15990;SDS011;8100;50.994;4.538;2022-12-15T00:53:11;46.78;;;28.35;;
15990;SDS011;8100;50.994;4.538;2022-12-15T00:56:15;47.13;;;27.20;;
15990;SDS011;8100;50.994;4.538;2022-12-15T00:59:20;50.28;;;28.10;;
15990;SDS011;8100;50.994;4.538;2022-12-15T01:02:25;48.67;;;27.40;;
15990;SDS011;8100;50.994;4.538;2022-12-15T01:05:31;46.67;;;26.95;;
15990;SDS011;8100;50.994;4.538;2022-12-15T01:08:36;43.40;;;25.50;;
15990;SDS011;8100;50.994;4.538;2022-12-15T01:11:41;42.20;;;26.23;;
15990;SDS011;8100;50.994;4.538;2022-12-15T01:14:46;47.72;;;27.92;;
15990;SDS011;8100;50.994;4.538;2022-12-15T01:17:50;46.63;;;27.20;;
15990;SDS011;8100;50.994;4.538;2022-12-15T01:20:57;48.38;;;26.85;;
15990;SDS011;8100;50.994;4.538;2022-12-15T01:23:46;47.28;;;27.02;;
15990;SDS011;8100;50.994;4.538;2022-12-15T01:26:33;47.50;;;27.17;;
15990;SDS011;8100;50.994;4.538;2022-12-15T01:29:20;46.10;;;27.10;;
15990;SDS011;8100;50.994;4.538;2022-12-15T01:32:08;45.95;;;27.05;;
15990;SDS011;8100;50.994;4.538;2022-12-15T01:34:55;52.28;;;27.77;;
15990;SDS011;8100;50.994;4.538;2022-12-15T01:37:44;66.28;;;32.22;;
15990;SDS011;8100;50.994;4.538;2022-12-15T01:40:31;54.10;;;28.48;;
15990;SDS011;8100;50.994;4.538;2022-12-15T01:43:32;58.28;;;29.40;;
15990;SDS011;8100;50.994;4.538;2022-12-15T01:46:21;49.20;;;28.02;;
15990;SDS011;8100;50.994;4.538;2022-12-15T01:49:10;51.90;;;27.92;;
15990;SDS011;8100;50.994;4.538;2022-12-15T01:52:02;51.60;;;29.08;;
15990;SDS011;8100;50.994;4.538;2022-12-15T01:54:54;43.95;;;25.05;;
15990;SDS011;8100;50.994;4.538;2022-12-15T01:57:44;42.88;;;25.90;;
15990;SDS011;8100;50.994;4.538;2022-12-15T02:00:33;44.25;;;25.35;;
15990;SDS011;8100;50.994;4.538;2022-12-15T02:03:21;37.78;;;22.80;;
15990;SDS011;8100;50.994;4.538;2022-12-15T02:06:09;45.05;;;24.45;;
15990;SDS011;8100;50.994;4.538;2022-12-15T02:08:57;48.53;;;26.52;;
15990;SDS011;8100;50.994;4.538;2022-12-15T02:11:51;61.10;;;30.58;;
15990;SDS011;8100;50.994;4.538;2022-12-15T02:14:57;76.32;;;34.58;;
15990;SDS011;8100;50.994;4.538;2022-12-15T02:18:03;51.70;;;26.35;;
15990;SDS011;8100;50.994;4.538;2022-12-15T02:20:56;43.50;;;24.77;;
15990;SDS011;8100;50.994;4.538;2022-12-15T02:27:23;50.50;;;27.48;;
15990;SDS011;8100;50.994;4.538;2022-12-15T02:30:35;49.55;;;26.20;;
15990;SDS011;8100;50.994;4.538;2022-12-15T02:33:29;48.60;;;25.40;;
15990;SDS011;8100;50.994;4.538;2022-12-15T02:36:22;46.58;;;25.75;;
15990;SDS011;8100;50.994;4.538;2022-12-15T02:39:12;48.95;;;26.20;;
15990;SDS011;8100;50.994;4.538;2022-12-15T02:42:01;45.55;;;25.25;;
15990;SDS011;8100;50.994;4.538;2022-12-15T02:44:49;45.20;;;25.10;;
15990;SDS011;8100;50.994;4.538;2022-12-15T02:47:42;45.15;;;24.98;;
15990;SDS011;8100;50.994;4.538;2022-12-15T02:50:47;42.80;;;24.65;;
15990;SDS011;8100;50.994;4.538;2022-12-15T02:53:57;42.22;;;24.67;;
15990;SDS011;8100;50.994;4.538;2022-12-15T02:57:09;44.28;;;24.05;;
15990;SDS011;8100;50.994;4.538;2022-12-15T03:00:04;44.15;;;25.38;;
15990;SDS011;8100;50.994;4.538;2022-12-15T03:02:55;42.35;;;25.75;;
15990;SDS011;8100;50.994;4.538;2022-12-15T03:05:42;47.83;;;25.17;;
15990;SDS011;8100;50.994;4.538;2022-12-15T03:08:30;44.83;;;26.00;;
15990;SDS011;8100;50.994;4.538;2022-12-15T03:11:17;47.95;;;25.80;;
15990;SDS011;8100;50.994;4.538;2022-12-15T03:14:04;52.22;;;27.23;;
15990;SDS011;8100;50.994;4.538;2022-12-15T03:16:51;50.10;;;27.77;;
15990;SDS011;8100;50.994;4.538;2022-12-15T03:19:41;52.70;;;27.05;;
15990;SDS011;8100;50.994;4.538;2022-12-15T03:22:28;53.33;;;28.27;;
15990;SDS011;8100;50.994;4.538;2022-12-15T03:25:16;56.25;;;29.75;;
15990;SDS011;8100;50.994;4.538;2022-12-15T03:28:03;54.17;;;29.42;;
15990;SDS011;8100;50.994;4.538;2022-12-15T03:30:50;54.50;;;29.55;;
15990;SDS011;8100;50.994;4.538;2022-12-15T03:33:38;48.95;;;28.52;;
15990;SDS011;8100;50.994;4.538;2022-12-15T03:36:26;46.80;;;26.00;;
15990;SDS011;8100;50.994;4.538;2022-12-15T03:39:14;48.63;;;26.08;;
15990;SDS011;8100;50.994;4.538;2022-12-15T03:42:02;46.47;;;26.33;;
15990;SDS011;8100;50.994;4.538;2022-12-15T03:44:49;47.00;;;26.80;;
15990;SDS011;8100;50.994;4.538;2022-12-15T03:47:39;43.75;;;26.67;;
15990;SDS011;8100;50.994;4.538;2022-12-15T03:50:27;46.25;;;25.75;;
15990;SDS011;8100;50.994;4.538;2022-12-15T03:53:16;42.50;;;24.88;;
15990;SDS011;8100;50.994;4.538;2022-12-15T03:56:04;43.88;;;25.58;;
15990;SDS011;8100;50.994;4.538;2022-12-15T03:58:51;46.17;;;25.77;;
15990;SDS011;8100;50.994;4.538;2022-12-15T04:01:38;45.63;;;26.48;;
15990;SDS011;8100;50.994;4.538;2022-12-15T04:04:32;43.00;;;25.67;;
15990;SDS011;8100;50.994;4.538;2022-12-15T04:07:19;43.67;;;25.25;;
15990;SDS011;8100;50.994;4.538;2022-12-15T04:10:09;44.92;;;25.40;;
15990;SDS011;8100;50.994;4.538;2022-12-15T04:12:56;43.90;;;24.52;;
15990;SDS011;8100;50.994;4.538;2022-12-15T04:15:44;45.53;;;24.98;;
15990;SDS011;8100;50.994;4.538;2022-12-15T04:18:31;43.88;;;24.98;;
15990;SDS011;8100;50.994;4.538;2022-12-15T04:21:18;46.97;;;26.63;;
15990;SDS011;8100;50.994;4.538;2022-12-15T04:24:05;41.08;;;24.42;;
15990;SDS011;8100;50.994;4.538;2022-12-15T04:27:11;39.53;;;22.83;;
15990;SDS011;8100;50.994;4.538;2022-12-15T04:30:16;40.38;;;23.48;;
15990;SDS011;8100;50.994;4.538;2022-12-15T04:33:21;43.10;;;24.40;;
15990;SDS011;8100;50.994;4.538;2022-12-15T04:36:26;41.33;;;24.00;;
15990;SDS011;8100;50.994;4.538;2022-12-15T04:39:33;41.40;;;24.48;;
15990;SDS011;8100;50.994;4.538;2022-12-15T04:42:40;40.83;;;23.63;;
15990;SDS011;8100;50.994;4.538;2022-12-15T04:45:47;39.42;;;24.17;;
15990;SDS011;8100;50.994;4.538;2022-12-15T04:48:52;36.00;;;22.25;;
15990;SDS011;8100;50.994;4.538;2022-12-15T04:51:57;40.10;;;23.08;;
15990;SDS011;8100;50.994;4.538;2022-12-15T04:55:01;41.03;;;24.33;;
15990;SDS011;8100;50.994;4.538;2022-12-15T04:58:08;42.40;;;24.23;;
15990;SDS011;8100;50.994;4.538;2022-12-15T05:01:13;38.65;;;23.98;;
15990;SDS011;8100;50.994;4.538;2022-12-15T05:04:17;36.45;;;22.00;;
15990;SDS011;8100;50.994;4.538;2022-12-15T05:07:23;39.00;;;23.00;;
15990;SDS011;8100;50.994;4.538;2022-12-15T05:10:28;41.10;;;23.70;;
15990;SDS011;8100;50.994;4.538;2022-12-15T05:13:34;40.60;;;23.00;;
15990;SDS011;8100;50.994;4.538;2022-12-15T05:16:38;38.35;;;22.00;;
15990;SDS011;8100;50.994;4.538;2022-12-15T05:19:43;38.35;;;22.52;;
15990;SDS011;8100;50.994;4.538;2022-12-15T05:22:51;39.80;;;23.50;;
15990;SDS011;8100;50.994;4.538;2022-12-15T05:25:57;38.60;;;21.67;;
15990;SDS011;8100;50.994;4.538;2022-12-15T05:29:03;37.10;;;22.23;;
15990;SDS011;8100;50.994;4.538;2022-12-15T05:32:07;38.13;;;21.73;;
15990;SDS011;8100;50.994;4.538;2022-12-15T05:34:57;38.50;;;21.80;;
15990;SDS011;8100;50.994;4.538;2022-12-15T05:37:45;40.60;;;21.52;;
15990;SDS011;8100;50.994;4.538;2022-12-15T05:40:32;40.97;;;22.45;;
15990;SDS011;8100;50.994;4.538;2022-12-15T05:43:20;33.45;;;20.50;;
15990;SDS011;8100;50.994;4.538;2022-12-15T05:46:08;36.80;;;21.20;;
15990;SDS011;8100;50.994;4.538;2022-12-15T05:48:55;35.42;;;20.65;;
15990;SDS011;8100;50.994;4.538;2022-12-15T05:51:43;36.40;;;21.77;;
15990;SDS011;8100;50.994;4.538;2022-12-15T05:54:31;33.25;;;20.20;;
15990;SDS011;8100;50.994;4.538;2022-12-15T05:57:19;34.33;;;20.85;;
15990;SDS011;8100;50.994;4.538;2022-12-15T06:00:07;37.00;;;21.45;;
15990;SDS011;8100;50.994;4.538;2022-12-15T06:02:56;35.50;;;21.50;;
15990;SDS011;8100;50.994;4.538;2022-12-15T06:05:43;35.83;;;21.80;;
15990;SDS011;8100;50.994;4.538;2022-12-15T06:08:31;38.80;;;21.90;;
15990;SDS011;8100;50.994;4.538;2022-12-15T06:11:20;38.45;;;21.25;;
15990;SDS011;8100;50.994;4.538;2022-12-15T06:14:07;34.22;;;20.58;;
15990;SDS011;8100;50.994;4.538;2022-12-15T06:16:55;36.35;;;21.83;;
15990;SDS011;8100;50.994;4.538;2022-12-15T06:19:44;37.25;;;21.63;;
15990;SDS011;8100;50.994;4.538;2022-12-15T06:22:31;38.22;;;21.45;;
15990;SDS011;8100;50.994;4.538;2022-12-15T06:25:18;36.65;;;20.98;;
15990;SDS011;8100;50.994;4.538;2022-12-15T06:28:06;33.85;;;21.20;;
15990;SDS011;8100;50.994;4.538;2022-12-15T06:30:54;37.08;;;21.30;;
15990;SDS011;8100;50.994;4.538;2022-12-15T06:33:46;40.90;;;24.48;;
15990;SDS011;8100;50.994;4.538;2022-12-15T06:36:35;40.85;;;24.08;;
15990;SDS011;8100;50.994;4.538;2022-12-15T06:39:23;36.22;;;22.60;;
15990;SDS011;8100;50.994;4.538;2022-12-15T06:42:10;40.88;;;22.45;;
15990;SDS011;8100;50.994;4.538;2022-12-15T06:44:59;40.45;;;22.88;;
15990;SDS011;8100;50.994;4.538;2022-12-15T06:47:47;38.47;;;22.45;;
15990;SDS011;8100;50.994;4.538;2022-12-15T06:50:34;39.25;;;23.00;;
15990;SDS011;8100;50.994;4.538;2022-12-15T06:53:22;38.08;;;22.13;;
15990;SDS011;8100;50.994;4.538;2022-12-15T06:56:12;38.08;;;22.10;;
15990;SDS011;8100;50.994;4.538;2022-12-15T06:59:03;38.05;;;22.42;;
15990;SDS011;8100;50.994;4.538;2022-12-15T07:01:51;38.38;;;22.17;;
15990;SDS011;8100;50.994;4.538;2022-12-15T07:04:38;36.20;;;20.90;;
15990;SDS011;8100;50.994;4.538;2022-12-15T07:07:26;35.05;;;20.30;;
15990;SDS011;8100;50.994;4.538;2022-12-15T07:10:14;40.83;;;22.77;;
15990;SDS011;8100;50.994;4.538;2022-12-15T07:13:02;36.72;;;20.77;;
15990;SDS011;8100;50.994;4.538;2022-12-15T07:15:49;37.30;;;21.55;;
15990;SDS011;8100;50.994;4.538;2022-12-15T07:18:36;37.63;;;21.02;;
15990;SDS011;8100;50.994;4.538;2022-12-15T07:21:25;38.47;;;21.50;;
15990;SDS011;8100;50.994;4.538;2022-12-15T07:24:12;39.25;;;21.02;;
15990;SDS011;8100;50.994;4.538;2022-12-15T07:27:01;38.47;;;21.60;;
15990;SDS011;8100;50.994;4.538;2022-12-15T07:29:48;39.33;;;22.25;;
15990;SDS011;8100;50.994;4.538;2022-12-15T07:32:35;37.13;;;21.02;;
15990;SDS011;8100;50.994;4.538;2022-12-15T07:35:22;34.00;;;20.48;;
15990;SDS011;8100;50.994;4.538;2022-12-15T07:38:09;37.60;;;21.13;;
15990;SDS011;8100;50.994;4.538;2022-12-15T07:40:59;34.88;;;21.65;;
15990;SDS011;8100;50.994;4.538;2022-12-15T07:43:48;38.63;;;22.00;;
15990;SDS011;8100;50.994;4.538;2022-12-15T07:46:35;39.83;;;21.92;;
15990;SDS011;8100;50.994;4.538;2022-12-15T07:49:23;36.05;;;22.17;;
15990;SDS011;8100;50.994;4.538;2022-12-15T07:52:10;36.80;;;21.48;;
15990;SDS011;8100;50.994;4.538;2022-12-15T07:54:58;35.45;;;21.05;;
15990;SDS011;8100;50.994;4.538;2022-12-15T07:57:45;37.75;;;21.75;;
15990;SDS011;8100;50.994;4.538;2022-12-15T08:00:34;41.88;;;23.50;;
15990;SDS011;8100;50.994;4.538;2022-12-15T08:03:21;38.30;;;22.55;;
15990;SDS011;8100;50.994;4.538;2022-12-15T08:06:09;39.72;;;22.90;;
15990;SDS011;8100;50.994;4.538;2022-12-15T08:08:58;41.55;;;22.90;;
15990;SDS011;8100;50.994;4.538;2022-12-15T08:11:45;35.40;;;21.10;;
15990;SDS011;8100;50.994;4.538;2022-12-15T08:14:32;39.15;;;22.42;;
15990;SDS011;8100;50.994;4.538;2022-12-15T08:17:21;40.08;;;23.02;;
15990;SDS011;8100;50.994;4.538;2022-12-15T08:20:08;41.22;;;22.33;;
15990;SDS011;8100;50.994;4.538;2022-12-15T08:22:56;36.58;;;20.90;;
15990;SDS011;8100;50.994;4.538;2022-12-15T08:25:43;36.63;;;21.33;;
15990;SDS011;8100;50.994;4.538;2022-12-15T08:28:30;36.90;;;21.98;;
15990;SDS011;8100;50.994;4.538;2022-12-15T08:31:18;35.75;;;21.45;;
15990;SDS011;8100;50.994;4.538;2022-12-15T08:34:08;37.80;;;21.05;;
15990;SDS011;8100;50.994;4.538;2022-12-15T08:36:56;41.25;;;22.17;;
15990;SDS011;8100;50.994;4.538;2022-12-15T08:39:43;39.45;;;21.80;;
15990;SDS011;8100;50.994;4.538;2022-12-15T08:42:31;40.78;;;23.92;;
15990;SDS011;8100;50.994;4.538;2022-12-15T08:45:19;40.22;;;24.02;;
15990;SDS011;8100;50.994;4.538;2022-12-15T08:48:06;38.80;;;22.25;;
15990;SDS011;8100;50.994;4.538;2022-12-15T08:50:55;36.53;;;21.67;;
15990;SDS011;8100;50.994;4.538;2022-12-15T08:53:43;42.03;;;23.85;;
15990;SDS011;8100;50.994;4.538;2022-12-15T08:56:30;43.60;;;24.83;;
15990;SDS011;8100;50.994;4.538;2022-12-15T08:59:17;41.08;;;24.83;;
15990;SDS011;8100;50.994;4.538;2022-12-15T09:02:04;42.13;;;24.45;;
15990;SDS011;8100;50.994;4.538;2022-12-15T09:04:52;42.63;;;23.73;;
15990;SDS011;8100;50.994;4.538;2022-12-15T09:07:41;41.95;;;25.95;;
15990;SDS011;8100;50.994;4.538;2022-12-15T09:10:28;42.35;;;25.85;;
15990;SDS011;8100;50.994;4.538;2022-12-15T09:13:16;42.17;;;25.55;;
15990;SDS011;8100;50.994;4.538;2022-12-15T09:16:04;46.08;;;25.42;;
15990;SDS011;8100;50.994;4.538;2022-12-15T09:18:53;45.63;;;26.52;;
15990;SDS011;8100;50.994;4.538;2022-12-15T09:21:41;51.55;;;27.65;;
15990;SDS011;8100;50.994;4.538;2022-12-15T09:24:30;51.75;;;28.85;;
15990;SDS011;8100;50.994;4.538;2022-12-15T09:27:17;43.92;;;24.80;;
15990;SDS011;8100;50.994;4.538;2022-12-15T09:30:05;39.80;;;21.98;;
15990;SDS011;8100;50.994;4.538;2022-12-15T09:32:53;43.75;;;23.70;;
15990;SDS011;8100;50.994;4.538;2022-12-15T09:35:47;41.95;;;23.90;;
15990;SDS011;8100;50.994;4.538;2022-12-15T09:38:35;39.58;;;22.77;;
15990;SDS011;8100;50.994;4.538;2022-12-15T09:41:26;41.33;;;22.63;;
15990;SDS011;8100;50.994;4.538;2022-12-15T09:44:15;38.85;;;22.48;;
15990;SDS011;8100;50.994;4.538;2022-12-15T09:47:07;37.90;;;22.48;;
15990;SDS011;8100;50.994;4.538;2022-12-15T09:50:00;40.03;;;22.98;;
15990;SDS011;8100;50.994;4.538;2022-12-15T09:52:50;40.05;;;23.05;;
15990;SDS011;8100;50.994;4.538;2022-12-15T09:55:41;41.35;;;22.98;;
15990;SDS011;8100;50.994;4.538;2022-12-15T09:58:37;43.33;;;22.92;;
15990;SDS011;8100;50.994;4.538;2022-12-15T10:01:30;40.47;;;22.48;;
15990;SDS011;8100;50.994;4.538;2022-12-15T10:04:26;47.65;;;23.35;;
15990;SDS011;8100;50.994;4.538;2022-12-15T10:07:24;41.50;;;23.73;;
15990;SDS011;8100;50.994;4.538;2022-12-15T10:10:20;37.30;;;22.30;;
15990;SDS011;8100;50.994;4.538;2022-12-15T10:13:16;40.47;;;21.95;;
15990;SDS011;8100;50.994;4.538;2022-12-15T10:16:15;35.13;;;20.38;;
15990;SDS011;8100;50.994;4.538;2022-12-15T10:19:07;39.40;;;21.40;;
15990;SDS011;8100;50.994;4.538;2022-12-15T10:21:59;41.47;;;22.77;;
15990;SDS011;8100;50.994;4.538;2022-12-15T10:24:47;38.40;;;21.98;;
15990;SDS011;8100;50.994;4.538;2022-12-15T10:31:05;41.63;;;22.15;;
15990;SDS011;8100;50.994;4.538;2022-12-15T10:34:04;39.17;;;21.25;;
15990;SDS011;8100;50.994;4.538;2022-12-15T10:36:56;43.40;;;23.52;;
15990;SDS011;8100;50.994;4.538;2022-12-15T10:39:44;40.53;;;22.00;;
15990;SDS011;8100;50.994;4.538;2022-12-15T10:42:32;41.50;;;22.10;;
15990;SDS011;8100;50.994;4.538;2022-12-15T10:45:33;39.28;;;22.05;;
15990;SDS011;8100;50.994;4.538;2022-12-15T10:48:23;36.13;;;19.90;;
15990;SDS011;8100;50.994;4.538;2022-12-15T10:51:16;34.20;;;20.30;;
15990;SDS011;8100;50.994;4.538;2022-12-15T10:54:07;41.45;;;21.00;;
15990;SDS011;8100;50.994;4.538;2022-12-15T10:56:59;37.95;;;21.08;;
15990;SDS011;8100;50.994;4.538;2022-12-15T11:00:20;34.90;;;20.42;;
15990;SDS011;8100;50.994;4.538;2022-12-15T11:03:22;39.50;;;21.02;;
15990;SDS011;8100;50.994;4.538;2022-12-15T11:06:13;34.97;;;19.88;;
15990;SDS011;8100;50.994;4.538;2022-12-15T11:09:07;34.40;;;21.02;;
15990;SDS011;8100;50.994;4.538;2022-12-15T11:12:11;35.58;;;21.00;;
15990;SDS011;8100;50.994;4.538;2022-12-15T11:15:36;39.75;;;21.80;;
15990;SDS011;8100;50.994;4.538;2022-12-15T11:18:28;37.70;;;21.85;;
15990;SDS011;8100;50.994;4.538;2022-12-15T11:21:24;40.28;;;20.27;;
15990;SDS011;8100;50.994;4.538;2022-12-15T11:24:15;39.17;;;20.33;;
15990;SDS011;8100;50.994;4.538;2022-12-15T11:27:11;34.50;;;19.60;;
15990;SDS011;8100;50.994;4.538;2022-12-15T11:30:03;36.25;;;19.30;;
15990;SDS011;8100;50.994;4.538;2022-12-15T11:32:57;34.50;;;19.55;;
15990;SDS011;8100;50.994;4.538;2022-12-15T11:35:51;39.97;;;20.70;;
15990;SDS011;8100;50.994;4.538;2022-12-15T11:38:54;36.88;;;20.42;;
15990;SDS011;8100;50.994;4.538;2022-12-15T11:41:49;39.35;;;22.23;;
15990;SDS011;8100;50.994;4.538;2022-12-15T11:44:44;43.70;;;21.77;;
15990;SDS011;8100;50.994;4.538;2022-12-15T11:47:40;34.72;;;21.52;;
15990;SDS011;8100;50.994;4.538;2022-12-15T11:50:32;37.67;;;21.17;;
15990;SDS011;8100;50.994;4.538;2022-12-15T11:53:34;35.63;;;20.55;;
15990;SDS011;8100;50.994;4.538;2022-12-15T11:56:32;40.53;;;21.67;;
15990;SDS011;8100;50.994;4.538;2022-12-15T12:02:48;35.53;;;20.83;;
15990;SDS011;8100;50.994;4.538;2022-12-15T12:05:57;32.33;;;20.23;;
15990;SDS011;8100;50.994;4.538;2022-12-15T12:08:54;34.55;;;20.10;;
15990;SDS011;8100;50.994;4.538;2022-12-15T12:11:54;37.83;;;20.60;;
15990;SDS011;8100;50.994;4.538;2022-12-15T12:14:52;34.90;;;19.85;;
15990;SDS011;8100;50.994;4.538;2022-12-15T12:17:46;38.88;;;19.10;;
15990;SDS011;8100;50.994;4.538;2022-12-15T12:20:39;32.30;;;18.63;;
15990;SDS011;8100;50.994;4.538;2022-12-15T12:23:33;31.33;;;18.83;;
15990;SDS011;8100;50.994;4.538;2022-12-15T12:26:27;37.60;;;20.60;;
15990;SDS011;8100;50.994;4.538;2022-12-15T12:29:24;38.30;;;20.40;;
15990;SDS011;8100;50.994;4.538;2022-12-15T12:32:17;33.65;;;19.90;;
15990;SDS011;8100;50.994;4.538;2022-12-15T12:35:14;35.17;;;20.60;;
15990;SDS011;8100;50.994;4.538;2022-12-15T12:38:08;35.10;;;19.48;;
15990;SDS011;8100;50.994;4.538;2022-12-15T12:40:58;35.22;;;20.85;;
15990;SDS011;8100;50.994;4.538;2022-12-15T12:43:49;29.08;;;18.98;;
15990;SDS011;8100;50.994;4.538;2022-12-15T12:46:41;39.15;;;19.75;;
15990;SDS011;8100;50.994;4.538;2022-12-15T12:49:32;35.78;;;20.52;;
15990;SDS011;8100;50.994;4.538;2022-12-15T12:52:25;35.33;;;19.63;;
15990;SDS011;8100;50.994;4.538;2022-12-15T12:55:23;36.20;;;19.65;;
15990;SDS011;8100;50.994;4.538;2022-12-15T12:58:31;34.00;;;19.63;;
15990;SDS011;8100;50.994;4.538;2022-12-15T13:01:24;34.38;;;19.67;;
15990;SDS011;8100;50.994;4.538;2022-12-15T13:04:36;30.95;;;19.08;;
15990;SDS011;8100;50.994;4.538;2022-12-15T13:07:27;32.90;;;19.65;;
15990;SDS011;8100;50.994;4.538;2022-12-15T13:10:17;35.58;;;20.23;;
15990;SDS011;8100;50.994;4.538;2022-12-15T13:13:14;38.63;;;20.77;;
15990;SDS011;8100;50.994;4.538;2022-12-15T13:16:21;35.10;;;20.80;;
15990;SDS011;8100;50.994;4.538;2022-12-15T13:19:11;32.83;;;19.52;;
15990;SDS011;8100;50.994;4.538;2022-12-15T13:22:00;34.28;;;19.70;;
15990;SDS011;8100;50.994;4.538;2022-12-15T13:24:49;33.97;;;18.90;;
15990;SDS011;8100;50.994;4.538;2022-12-15T13:27:38;34.90;;;20.15;;
15990;SDS011;8100;50.994;4.538;2022-12-15T13:30:26;39.80;;;21.20;;
15990;SDS011;8100;50.994;4.538;2022-12-15T13:33:13;38.65;;;21.40;;
15990;SDS011;8100;50.994;4.538;2022-12-15T13:36:03;40.03;;;23.08;;
15990;SDS011;8100;50.994;4.538;2022-12-15T13:38:53;42.40;;;23.88;;
15990;SDS011;8100;50.994;4.538;2022-12-15T13:41:41;40.90;;;22.55;;
15990;SDS011;8100;50.994;4.538;2022-12-15T13:44:31;37.20;;;22.65;;
15990;SDS011;8100;50.994;4.538;2022-12-15T13:47:23;42.25;;;22.60;;
15990;SDS011;8100;50.994;4.538;2022-12-15T13:50:14;39.85;;;22.25;;
15990;SDS011;8100;50.994;4.538;2022-12-15T13:53:06;42.65;;;22.23;;
15990;SDS011;8100;50.994;4.538;2022-12-15T13:56:05;37.88;;;22.02;;
15990;SDS011;8100;50.994;4.538;2022-12-15T13:59:05;39.05;;;20.75;;
15990;SDS011;8100;50.994;4.538;2022-12-15T14:02:00;40.20;;;21.40;;
15990;SDS011;8100;50.994;4.538;2022-12-15T14:05:01;37.58;;;21.38;;
15990;SDS011;8100;50.994;4.538;2022-12-15T14:07:57;39.63;;;21.55;;
15990;SDS011;8100;50.994;4.538;2022-12-15T14:10:49;37.03;;;20.67;;
15990;SDS011;8100;50.994;4.538;2022-12-15T14:13:39;38.55;;;20.52;;
15990;SDS011;8100;50.994;4.538;2022-12-15T14:16:27;36.92;;;21.48;;
15990;SDS011;8100;50.994;4.538;2022-12-15T14:19:18;42.22;;;20.25;;
15990;SDS011;8100;50.994;4.538;2022-12-15T14:22:16;36.65;;;20.95;;
15990;SDS011;8100;50.994;4.538;2022-12-15T14:25:11;39.90;;;21.73;;
15990;SDS011;8100;50.994;4.538;2022-12-15T14:28:20;37.78;;;21.33;;
15990;SDS011;8100;50.994;4.538;2022-12-15T14:31:16;37.20;;;21.73;;
15990;SDS011;8100;50.994;4.538;2022-12-15T14:34:07;37.50;;;20.92;;
15990;SDS011;8100;50.994;4.538;2022-12-15T14:37:05;36.67;;;21.25;;
15990;SDS011;8100;50.994;4.538;2022-12-15T14:39:54;39.17;;;21.02;;
15990;SDS011;8100;50.994;4.538;2022-12-15T14:42:41;40.65;;;21.73;;
15990;SDS011;8100;50.994;4.538;2022-12-15T14:45:30;34.45;;;20.95;;
15990;SDS011;8100;50.994;4.538;2022-12-15T14:48:20;33.67;;;20.70;;
15990;SDS011;8100;50.994;4.538;2022-12-15T14:51:13;32.05;;;19.35;;
15990;SDS011;8100;50.994;4.538;2022-12-15T14:54:01;39.05;;;21.40;;
15990;SDS011;8100;50.994;4.538;2022-12-15T14:56:54;36.80;;;20.63;;
15990;SDS011;8100;50.994;4.538;2022-12-15T14:59:44;32.63;;;19.98;;
15990;SDS011;8100;50.994;4.538;2022-12-15T15:02:32;35.15;;;21.42;;
15990;SDS011;8100;50.994;4.538;2022-12-15T15:05:24;36.80;;;20.75;;
15990;SDS011;8100;50.994;4.538;2022-12-15T15:08:12;35.55;;;21.13;;
15990;SDS011;8100;50.994;4.538;2022-12-15T15:11:01;36.60;;;20.67;;
15990;SDS011;8100;50.994;4.538;2022-12-15T15:14:04;39.35;;;21.13;;
15990;SDS011;8100;50.994;4.538;2022-12-15T15:17:04;37.10;;;20.90;;
15990;SDS011;8100;50.994;4.538;2022-12-15T15:19:54;38.15;;;20.40;;
15990;SDS011;8100;50.994;4.538;2022-12-15T15:22:46;34.65;;;20.95;;
15990;SDS011;8100;50.994;4.538;2022-12-15T15:25:47;33.83;;;20.55;;
15990;SDS011;8100;50.994;4.538;2022-12-15T15:28:36;37.58;;;21.48;;
15990;SDS011;8100;50.994;4.538;2022-12-15T15:31:26;36.72;;;21.27;;
15990;SDS011;8100;50.994;4.538;2022-12-15T15:34:15;38.35;;;21.20;;
15990;SDS011;8100;50.994;4.538;2022-12-15T15:37:04;37.15;;;21.52;;
15990;SDS011;8100;50.994;4.538;2022-12-15T15:39:58;34.78;;;21.13;;
15990;SDS011;8100;50.994;4.538;2022-12-15T15:42:45;39.65;;;21.77;;
15990;SDS011;8100;50.994;4.538;2022-12-15T15:45:33;35.00;;;19.35;;
15990;SDS011;8100;50.994;4.538;2022-12-15T15:48:22;36.95;;;20.73;;
15990;SDS011;8100;50.994;4.538;2022-12-15T15:51:12;35.53;;;20.20;;
15990;SDS011;8100;50.994;4.538;2022-12-15T15:54:00;37.97;;;19.88;;
15990;SDS011;8100;50.994;4.538;2022-12-15T15:56:51;39.10;;;22.25;;
15990;SDS011;8100;50.994;4.538;2022-12-15T15:59:38;40.35;;;21.80;;
15990;SDS011;8100;50.994;4.538;2022-12-15T16:02:26;44.22;;;22.40;;
15990;SDS011;8100;50.994;4.538;2022-12-15T16:05:13;46.28;;;22.50;;
15990;SDS011;8100;50.994;4.538;2022-12-15T16:08:01;46.08;;;22.70;;
15990;SDS011;8100;50.994;4.538;2022-12-15T16:10:50;40.88;;;22.13;;
15990;SDS011;8100;50.994;4.538;2022-12-15T16:13:39;44.85;;;25.27;;
15990;SDS011;8100;50.994;4.538;2022-12-15T16:16:27;49.58;;;27.05;;
15990;SDS011;8100;50.994;4.538;2022-12-15T16:19:17;55.35;;;26.52;;
15990;SDS011;8100;50.994;4.538;2022-12-15T16:22:04;60.72;;;30.17;;
15990;SDS011;8100;50.994;4.538;2022-12-15T16:24:53;71.32;;;34.38;;
15990;SDS011;8100;50.994;4.538;2022-12-15T16:27:41;71.10;;;36.20;;
15990;SDS011;8100;50.994;4.538;2022-12-15T16:30:30;59.90;;;31.52;;
15990;SDS011;8100;50.994;4.538;2022-12-15T16:33:17;55.33;;;29.33;;
15990;SDS011;8100;50.994;4.538;2022-12-15T16:36:07;55.95;;;27.52;;
15990;SDS011;8100;50.994;4.538;2022-12-15T16:38:58;61.55;;;30.38;;
15990;SDS011;8100;50.994;4.538;2022-12-15T16:41:45;55.22;;;30.23;;
15990;SDS011;8100;50.994;4.538;2022-12-15T16:44:33;58.75;;;31.23;;
15990;SDS011;8100;50.994;4.538;2022-12-15T16:47:21;55.55;;;29.67;;
15990;SDS011;8100;50.994;4.538;2022-12-15T16:50:10;58.20;;;27.65;;
15990;SDS011;8100;50.994;4.538;2022-12-15T16:52:59;52.22;;;28.73;;
15990;SDS011;8100;50.994;4.538;2022-12-15T16:55:47;53.08;;;29.48;;
15990;SDS011;8100;50.994;4.538;2022-12-15T16:58:38;55.65;;;30.73;;
15990;SDS011;8100;50.994;4.538;2022-12-15T17:01:25;58.50;;;29.65;;
15990;SDS011;8100;50.994;4.538;2022-12-15T17:04:14;48.60;;;28.00;;
15990;SDS011;8100;50.994;4.538;2022-12-15T17:07:01;63.95;;;31.85;;
15990;SDS011;8100;50.994;4.538;2022-12-15T17:09:49;58.88;;;31.38;;
15990;SDS011;8100;50.994;4.538;2022-12-15T17:12:37;56.90;;;29.73;;
15990;SDS011;8100;50.994;4.538;2022-12-15T17:15:24;57.00;;;29.88;;